PWSweather.com
Personal Weather Stations
Station Observations

LlefiĆ BadalonaES

Lat: 41.44, Lon: 2.2175

Elevation: 213.254

Station Type: oregon WMR918

http://www.estacionmeteorologicabadalonallefia.com

Latest ConditionsUpdated 7:03:32 PM GMT+01:01 Saturday, Oct 25, 2014
Currently Today's Max Today's Min Today's Average
Temperature 68.9°F20.5°C 76.3°F24.6°C 59.2°F15.1°C 66.3°F19.1°C
Dew Point 67.1°F19.5°C 68.1°F20.1°C 42.4°F5.8°C 50.3°F10.2°C
Winds 2.8 mph E4.5 kmh E 10.7 mph NW17.2 kmh NW - 5.8 mph 9.3 kmh
Wind Gusts 4.1 mph6.6 kmh 19.5 mph31.4 kmh - -
Humidity 94% 95% 32% 58%
Pressure 30.09 in1019.0 mb 30.09 in1019.0 mb 30.00 in1015.9 mb -
Hour Temp Dew Point Humidity Winds Wind Gusts Pressure Precip Precip Rate Daily Precip Total
07:03 PM 68.9°F20.5°C 67.1°F19.5°C 94% 2.8 mph E4.5 kmh E 4.1 mph6.6 kmh 30.09 in1019.0 mb 0.00 in0.0 mm 0.00 in/hr0.0 mm/hr 0.00 in0.0 mm
06:53 PM 68.9°F20.5°C 67.1°F19.5°C 94% Calm Calm -- 30.09 in1019.0 mb 0.00 in0.0 mm 0.00 in/hr0.0 mm/hr 0.00 in0.0 mm
06:43 PM 69.1°F20.6°C 67.6°F19.8°C 95% 3.1 mph E5.0 kmh E 6.4 mph10.3 kmh 30.09 in1019.0 mb 0.00 in0.0 mm 0.00 in/hr0.0 mm/hr 0.00 in0.0 mm
06:33 PM 69.1°F20.6°C 67.6°F19.8°C 95% 3.2 mph E5.1 kmh E 8.1 mph13.0 kmh 30.09 in1019.0 mb 0.00 in0.0 mm 0.00 in/hr0.0 mm/hr 0.00 in0.0 mm
06:23 PM 69.1°F20.6°C 67.6°F19.8°C 95% 4.4 mph ENE7.1 kmh ENE 8.1 mph13.0 kmh 30.09 in1019.0 mb 0.00 in0.0 mm 0.00 in/hr0.0 mm/hr 0.00 in0.0 mm
06:13 PM 69.3°F20.7°C 67.8°F19.9°C 95% 5.0 mph ENE8.0 kmh ENE 8.1 mph13.0 kmh 30.09 in1019.0 mb 0.00 in0.0 mm 0.00 in/hr0.0 mm/hr 0.00 in0.0 mm
06:03 PM 69.4°F20.8°C 67.9°F19.9°C 95% 4.8 mph ENE7.7 kmh ENE 7.6 mph12.2 kmh 30.09 in1019.0 mb 0.00 in0.0 mm 0.00 in/hr0.0 mm/hr 0.00 in0.0 mm
05:53 PM 69.6°F20.9°C 68.1°F20.1°C 95% 4.0 mph E6.4 kmh E 8.1 mph13.0 kmh 30.09 in1019.0 mb 0.00 in0.0 mm 0.00 in/hr0.0 mm/hr 0.00 in0.0 mm
05:43 PM 69.8°F21.0°C 67.7°F19.8°C 93% 4.8 mph ENE7.7 kmh ENE 8.1 mph13.0 kmh 30.09 in1019.0 mb 0.00 in0.0 mm 0.00 in/hr0.0 mm/hr 0.00 in0.0 mm
05:33 PM 70.2°F21.2°C 67.7°F19.8°C 92% 3.8 mph SE6.1 kmh SE 7.6 mph12.2 kmh 30.06 in1017.9 mb 0.00 in0.0 mm 0.00 in/hr0.0 mm/hr 0.00 in0.0 mm
05:23 PM 70.9°F21.6°C 67.1°F19.5°C 88% 5.6 mph ENE9.0 kmh ENE 14.2 mph22.9 kmh 30.06 in1017.9 mb 0.00 in0.0 mm 0.00 in/hr0.0 mm/hr 0.00 in0.0 mm
05:13 PM 71.0°F21.7°C 65.9°F18.8°C 84% 8.2 mph NE13.2 kmh NE 13.1 mph21.1 kmh 30.06 in1017.9 mb 0.00 in0.0 mm 0.00 in/hr0.0 mm/hr 0.00 in0.0 mm
05:03 PM 71.2°F21.8°C 65.8°F18.8°C 83% 5.2 mph ENE8.4 kmh ENE 7.6 mph12.2 kmh 30.06 in1017.9 mb 0.00 in0.0 mm 0.00 in/hr0.0 mm/hr 0.00 in0.0 mm
04:53 PM 71.2°F21.8°C 64.4°F18.0°C 79% 7.4 mph ENE11.9 kmh ENE 14.2 mph22.9 kmh 30.06 in1017.9 mb 0.00 in0.0 mm 0.00 in/hr0.0 mm/hr 0.00 in0.0 mm
04:43 PM 72.3°F22.4°C 64.0°F17.8°C 75% 5.8 mph ENE9.3 kmh ENE 10.7 mph17.2 kmh 30.06 in1017.9 mb 0.00 in0.0 mm 0.00 in/hr0.0 mm/hr 0.00 in0.0 mm
04:33 PM 72.5°F22.5°C 58.7°F14.8°C 62% 4.6 mph E7.4 kmh E 5.2 mph8.4 kmh 30.06 in1017.9 mb 0.00 in0.0 mm 0.00 in/hr0.0 mm/hr 0.00 in0.0 mm
04:23 PM 72.1°F22.3°C 56.1°F13.4°C 57% 3.1 mph E5.0 kmh E 8.1 mph13.0 kmh 30.06 in1017.9 mb 0.00 in0.0 mm 0.00 in/hr0.0 mm/hr 0.00 in0.0 mm
04:13 PM 72.1°F22.3°C 55.5°F13.1°C 56% 5.4 mph ENE8.7 kmh ENE 10.5 mph16.9 kmh 30.06 in1017.9 mb 0.00 in0.0 mm 0.00 in/hr0.0 mm/hr 0.00 in0.0 mm
04:03 PM 72.5°F22.5°C 54.4°F12.4°C 53% 4.2 mph E6.8 kmh E 8.1 mph13.0 kmh 30.06 in1017.9 mb 0.00 in0.0 mm 0.00 in/hr0.0 mm/hr 0.00 in0.0 mm
03:53 PM 73.0°F22.8°C 54.4°F12.4°C 52% 3.1 mph E5.0 kmh E 5.2 mph8.4 kmh 30.06 in1017.9 mb 0.00 in0.0 mm 0.00 in/hr0.0 mm/hr 0.00 in0.0 mm
03:43 PM 73.1°F22.8°C 53.9°F12.2°C 51% 4.1 mph E6.6 kmh E 8.1 mph13.0 kmh 30.06 in1017.9 mb 0.00 in0.0 mm 0.00 in/hr0.0 mm/hr 0.00 in0.0 mm
03:33 PM 73.8°F23.2°C 52.8°F11.6°C 48% 3.3 mph NE5.3 kmh NE 8.1 mph13.0 kmh 30.06 in1017.9 mb 0.00 in0.0 mm 0.00 in/hr0.0 mm/hr 0.00 in0.0 mm
03:23 PM 73.9°F23.3°C 51.8°F11.0°C 46% 3.1 mph ESE5.0 kmh ESE 7.6 mph12.2 kmh 30.06 in1017.9 mb 0.00 in0.0 mm 0.00 in/hr0.0 mm/hr 0.00 in0.0 mm
03:13 PM 73.4°F23.0°C 50.8°F10.4°C 45% 5.7 mph SE9.2 kmh SE 8.1 mph13.0 kmh 30.06 in1017.9 mb 0.00 in0.0 mm 0.00 in/hr0.0 mm/hr 0.00 in0.0 mm
03:03 PM 73.6°F23.1°C 53.2°F11.8°C 49% 5.0 mph SSE8.0 kmh SSE 7.6 mph12.2 kmh 30.06 in1017.9 mb 0.00 in0.0 mm 0.00 in/hr0.0 mm/hr 0.00 in0.0 mm
02:53 PM 73.4°F23.0°C 53.6°F12.0°C 50% 6.2 mph SE10.0 kmh SE 10.5 mph16.9 kmh 30.06 in1017.9 mb 0.00 in0.0 mm 0.00 in/hr0.0 mm/hr 0.00 in0.0 mm
02:43 PM 73.6°F23.1°C 57.4°F14.1°C 57% 3.2 mph E5.1 kmh E 4.6 mph7.4 kmh 30.06 in1017.9 mb 0.00 in0.0 mm 0.00 in/hr0.0 mm/hr 0.00 in0.0 mm
02:33 PM 73.5°F23.1°C 57.3°F14.1°C 57% 5.1 mph NE8.2 kmh NE 8.1 mph13.0 kmh 30.06 in1017.9 mb 0.00 in0.0 mm 0.00 in/hr0.0 mm/hr 0.00 in0.0 mm
02:23 PM 73.8°F23.2°C 58.6°F14.8°C 59% 3.9 mph E6.3 kmh E 8.1 mph13.0 kmh 30.06 in1017.9 mb 0.00 in0.0 mm 0.00 in/hr0.0 mm/hr 0.00 in0.0 mm
02:13 PM 73.9°F23.3°C 57.3°F14.1°C 56% 4.9 mph E7.9 kmh E 7.0 mph11.3 kmh 30.06 in1017.9 mb 0.00 in0.0 mm 0.00 in/hr0.0 mm/hr 0.00 in0.0 mm
02:03 PM 73.8°F23.2°C 54.0°F12.2°C 50% 3.7 mph E6.0 kmh E 7.6 mph12.2 kmh 30.06 in1017.9 mb 0.00 in0.0 mm 0.00 in/hr0.0 mm/hr 0.00 in0.0 mm
01:53 PM 73.9°F23.3°C 51.3°F10.7°C 45% 4.4 mph ENE7.1 kmh ENE 8.1 mph13.0 kmh 30.06 in1017.9 mb 0.00 in0.0 mm 0.00 in/hr0.0 mm/hr 0.00 in0.0 mm
01:43 PM 73.9°F23.3°C 47.3°F8.5°C 39% 4.1 mph ENE6.6 kmh ENE 8.1 mph13.0 kmh 30.06 in1017.9 mb 0.00 in0.0 mm 0.00 in/hr0.0 mm/hr 0.00 in0.0 mm
01:33 PM 73.9°F23.3°C 44.5°F6.9°C 35% 3.7 mph NE6.0 kmh NE 7.0 mph11.3 kmh 30.06 in1017.9 mb 0.00 in0.0 mm 0.00 in/hr0.0 mm/hr 0.00 in0.0 mm
01:23 PM 73.9°F23.3°C 44.5°F6.9°C 35% 1.2 mph ENE1.9 kmh ENE 9.9 mph15.9 kmh 30.06 in1017.9 mb 0.00 in0.0 mm 0.00 in/hr0.0 mm/hr 0.00 in0.0 mm
01:13 PM 74.8°F23.8°C 45.3°F7.4°C 35% 4.5 mph E7.2 kmh E 7.6 mph12.2 kmh 30.06 in1017.9 mb 0.00 in0.0 mm 0.00 in/hr0.0 mm/hr 0.00 in0.0 mm
01:03 PM 74.7°F23.7°C 46.0°F7.8°C 36% 2.8 mph E4.5 kmh E 5.2 mph8.4 kmh 30.06 in1017.9 mb 0.00 in0.0 mm 0.00 in/hr0.0 mm/hr 0.00 in0.0 mm
12:53 PM 75.0°F23.9°C 48.4°F9.1°C 39% 2.9 mph SE4.7 kmh SE 5.2 mph8.4 kmh 30.06 in1017.9 mb 0.00 in0.0 mm 0.00 in/hr0.0 mm/hr 0.00 in0.0 mm
12:43 PM 74.7°F23.7°C 51.3°F10.7°C 44% 3.1 mph SE5.0 kmh SE 5.2 mph8.4 kmh 30.06 in1017.9 mb 0.00 in0.0 mm 0.00 in/hr0.0 mm/hr 0.00 in0.0 mm
12:33 PM 73.8°F23.2°C 50.5°F10.3°C 44% 1.8 mph ENE2.9 kmh ENE 5.8 mph9.3 kmh 30.06 in1017.9 mb 0.00 in0.0 mm 0.00 in/hr0.0 mm/hr 0.00 in0.0 mm
12:23 PM 73.1°F22.8°C 52.2°F11.2°C 48% 5.2 mph ESE8.4 kmh ESE 7.6 mph12.2 kmh 30.06 in1017.9 mb 0.00 in0.0 mm 0.00 in/hr0.0 mm/hr 0.00 in0.0 mm
12:13 PM 73.4°F23.0°C 51.9°F11.1°C 47% 1.0 mph ESE1.6 kmh ESE 3.5 mph5.6 kmh 30.06 in1017.9 mb 0.00 in0.0 mm 0.00 in/hr0.0 mm/hr 0.00 in0.0 mm
12:03 PM 75.1°F23.9°C 51.7°F10.9°C 44% 4.8 mph SE7.7 kmh SE 10.5 mph16.9 kmh 30.06 in1017.9 mb 0.00 in0.0 mm 0.00 in/hr0.0 mm/hr 0.00 in0.0 mm
11:53 AM 76.3°F24.6°C 45.8°F7.7°C 34% 3.1 mph ESE5.0 kmh ESE 5.2 mph8.4 kmh 30.06 in1017.9 mb 0.00 in0.0 mm 0.00 in/hr0.0 mm/hr 0.00 in0.0 mm
11:43 AM 75.2°F24.0°C 43.3°F6.3°C 32% Calm Calm -- 30.09 in1019.0 mb 0.00 in0.0 mm 0.00 in/hr0.0 mm/hr 0.00 in0.0 mm
11:33 AM 74.4°F23.6°C 44.2°F6.8°C 34% Calm Calm 5.2 mph8.4 kmh 30.09 in1019.0 mb 0.00 in0.0 mm 0.00 in/hr0.0 mm/hr 0.00 in0.0 mm
11:23 AM 72.7°F22.6°C 43.4°F6.3°C 35% 2.9 mph NW4.7 kmh NW 6.4 mph10.3 kmh 30.09 in1019.0 mb 0.00 in0.0 mm 0.00 in/hr0.0 mm/hr 0.00 in0.0 mm
11:13 AM 71.8°F22.1°C 43.4°F6.3°C 36% 0.6 mph NW1.0 kmh NW 2.9 mph4.7 kmh 30.06 in1017.9 mb 0.00 in0.0 mm 0.00 in/hr0.0 mm/hr 0.00 in0.0 mm
11:03 AM 70.7°F21.5°C 42.4°F5.8°C 36% 4.8 mph NW7.7 kmh NW 10.7 mph17.2 kmh 30.06 in1017.9 mb 0.00 in0.0 mm 0.00 in/hr0.0 mm/hr 0.00 in0.0 mm
10:53 AM 69.8°F21.0°C 43.0°F6.1°C 38% 3.3 mph NNW5.3 kmh NNW 7.6 mph12.2 kmh 30.06 in1017.9 mb 0.00 in0.0 mm 0.00 in/hr0.0 mm/hr 0.00 in0.0 mm
10:43 AM 68.7°F20.4°C 43.4°F6.3°C 40% 4.8 mph NW7.7 kmh NW 9.9 mph15.9 kmh 30.09 in1019.0 mb 0.00 in0.0 mm 0.00 in/hr0.0 mm/hr 0.00 in0.0 mm
10:33 AM 67.7°F19.8°C 46.2°F7.9°C 46% 3.6 mph NW5.8 kmh NW 11.3 mph18.2 kmh 30.09 in1019.0 mb 0.00 in0.0 mm 0.00 in/hr0.0 mm/hr 0.00 in0.0 mm
10:23 AM 66.0°F18.9°C 46.8°F8.2°C 50% 2.4 mph NNW3.9 kmh NNW 8.1 mph13.0 kmh 30.09 in1019.0 mb 0.00 in0.0 mm 0.00 in/hr0.0 mm/hr 0.00 in0.0 mm
10:13 AM 64.9°F18.3°C 45.8°F7.7°C 50% 6.8 mph WNW10.9 kmh WNW 16.6 mph26.7 kmh 30.06 in1017.9 mb 0.00 in0.0 mm 0.00 in/hr0.0 mm/hr 0.00 in0.0 mm
10:03 AM 64.1°F17.8°C 45.6°F7.6°C 51% 7.2 mph NW11.6 kmh NW 11.3 mph18.2 kmh 30.06 in1017.9 mb 0.00 in0.0 mm 0.00 in/hr0.0 mm/hr 0.00 in0.0 mm
09:53 AM 63.7°F17.6°C 45.7°F7.6°C 52% 7.3 mph NW11.7 kmh NW 10.7 mph17.2 kmh 30.06 in1017.9 mb 0.00 in0.0 mm 0.00 in/hr0.0 mm/hr 0.00 in0.0 mm
09:43 AM 62.6°F17.0°C 45.2°F7.3°C 53% 8.5 mph NW13.7 kmh NW 14.2 mph22.9 kmh 30.06 in1017.9 mb 0.00 in0.0 mm 0.00 in/hr0.0 mm/hr 0.00 in0.0 mm
09:33 AM 62.0°F16.7°C 46.2°F7.9°C 56% 7.3 mph NW11.7 kmh NW 16.6 mph26.7 kmh 30.06 in1017.9 mb 0.00 in0.0 mm 0.00 in/hr0.0 mm/hr 0.00 in0.0 mm
09:23 AM 61.5°F16.4°C 47.0°F8.3°C 59% 4.5 mph W7.2 kmh W 10.5 mph16.9 kmh 30.06 in1017.9 mb 0.00 in0.0 mm 0.00 in/hr0.0 mm/hr 0.00 in0.0 mm
09:13 AM 60.8°F16.0°C 46.4°F8.0°C 59% 8.9 mph NW14.3 kmh NW 16.0 mph25.7 kmh 30.06 in1017.9 mb 0.00 in0.0 mm 0.00 in/hr0.0 mm/hr 0.00 in0.0 mm
09:03 AM 60.4°F15.8°C 46.5°F8.1°C 60% 8.2 mph NW13.2 kmh NW 13.1 mph21.1 kmh 30.06 in1017.9 mb 0.00 in0.0 mm 0.00 in/hr0.0 mm/hr 0.00 in0.0 mm
08:53 AM 60.6°F15.9°C 46.2°F7.9°C 59% 7.3 mph NW11.7 kmh NW 11.3 mph18.2 kmh 30.06 in1017.9 mb 0.00 in0.0 mm 0.00 in/hr0.0 mm/hr 0.00 in0.0 mm
08:43 AM 60.6°F15.9°C 46.2°F7.9°C 59% 7.6 mph NW12.2 kmh NW 11.3 mph18.2 kmh 30.06 in1017.9 mb 0.00 in0.0 mm 0.00 in/hr0.0 mm/hr 0.00 in0.0 mm
08:33 AM 60.1°F15.6°C 45.7°F7.6°C 59% 8.6 mph NW13.8 kmh NW 13.7 mph22.0 kmh 30.06 in1017.9 mb 0.00 in0.0 mm 0.00 in/hr0.0 mm/hr 0.00 in0.0 mm
08:24 AM 60.1°F15.6°C 44.8°F7.1°C 57% 7.2 mph NW11.6 kmh NW 10.5 mph16.9 kmh 30.06 in1017.9 mb 0.00 in0.0 mm 0.00 in/hr0.0 mm/hr 0.00 in0.0 mm
08:13 AM 60.4°F15.8°C 45.1°F7.3°C 57% 8.8 mph NW14.2 kmh NW 13.7 mph22.0 kmh 30.06 in1017.9 mb 0.00 in0.0 mm 0.00 in/hr0.0 mm/hr 0.00 in0.0 mm
08:03 AM 60.4°F15.8°C 44.7°F7.1°C 56% 6.7 mph WNW10.8 kmh WNW 13.1 mph21.1 kmh 30.03 in1016.9 mb 0.00 in0.0 mm 0.00 in/hr0.0 mm/hr 0.00 in0.0 mm
07:53 AM 60.3°F15.7°C 45.0°F7.2°C 57% 6.6 mph NW10.6 kmh NW 13.1 mph21.1 kmh 30.03 in1016.9 mb 0.00 in0.0 mm 0.00 in/hr0.0 mm/hr 0.00 in0.0 mm
07:43 AM 59.9°F15.5°C 45.1°F7.3°C 58% 6.1 mph NW9.8 kmh NW 11.3 mph18.2 kmh 30.03 in1016.9 mb 0.00 in0.0 mm 0.00 in/hr0.0 mm/hr 0.00 in0.0 mm
07:33 AM 59.9°F15.5°C 45.1°F7.3°C 58% 7.2 mph NW11.6 kmh NW 10.7 mph17.2 kmh 30.03 in1016.9 mb 0.00 in0.0 mm 0.00 in/hr0.0 mm/hr 0.00 in0.0 mm
07:23 AM 59.9°F15.5°C 44.6°F7.0°C 57% 9.2 mph NW14.8 kmh NW 14.2 mph22.9 kmh 30.03 in1016.9 mb 0.00 in0.0 mm 0.00 in/hr0.0 mm/hr 0.00 in0.0 mm
07:13 AM 60.3°F15.7°C 45.0°F7.2°C 57% 7.6 mph NW12.2 kmh NW 13.7 mph22.0 kmh 30.03 in1016.9 mb 0.00 in0.0 mm 0.00 in/hr0.0 mm/hr 0.00 in0.0 mm
07:03 AM 60.6°F15.9°C 44.8°F7.1°C 56% 8.3 mph NW13.4 kmh NW 11.3 mph18.2 kmh 30.03 in1016.9 mb 0.00 in0.0 mm 0.00 in/hr0.0 mm/hr 0.00 in0.0 mm
06:53 AM 60.6°F15.9°C 46.2°F7.9°C 59% 7.0 mph NW11.3 kmh NW 11.3 mph18.2 kmh 30.03 in1016.9 mb 0.00 in0.0 mm 0.00 in/hr0.0 mm/hr 0.00 in0.0 mm
06:43 AM 60.1°F15.6°C 46.1°F7.8°C 60% 5.5 mph NW8.9 kmh NW 11.3 mph18.2 kmh 30.03 in1016.9 mb 0.00 in0.0 mm 0.00 in/hr0.0 mm/hr 0.00 in0.0 mm
06:33 AM 59.5°F15.3°C 45.6°F7.6°C 60% 7.0 mph NW11.3 kmh NW 13.7 mph22.0 kmh 30.03 in1016.9 mb 0.00 in0.0 mm 0.00 in/hr0.0 mm/hr 0.00 in0.0 mm
06:23 AM 59.2°F15.1°C 45.3°F7.4°C 60% 9.3 mph NW15.0 kmh NW 13.1 mph21.1 kmh 30.03 in1016.9 mb 0.00 in0.0 mm 0.00 in/hr0.0 mm/hr 0.00 in0.0 mm
06:13 AM 59.2°F15.1°C 46.2°F7.9°C 62% 7.9 mph NW12.7 kmh NW 16.0 mph25.7 kmh 30.03 in1016.9 mb 0.00 in0.0 mm 0.00 in/hr0.0 mm/hr 0.00 in0.0 mm
06:03 AM 59.4°F15.2°C 46.3°F7.9°C 62% 7.6 mph NW12.2 kmh NW 16.6 mph26.7 kmh 30.03 in1016.9 mb 0.00 in0.0 mm 0.00 in/hr0.0 mm/hr 0.00 in0.0 mm
05:53 AM 59.4°F15.2°C 46.3°F7.9°C 62% 9.1 mph NW14.6 kmh NW 13.1 mph21.1 kmh 30.03 in1016.9 mb 0.00 in0.0 mm 0.00 in/hr0.0 mm/hr 0.00 in0.0 mm
05:43 AM 59.5°F15.3°C 46.5°F8.1°C 62% 7.1 mph NW11.4 kmh NW 10.7 mph17.2 kmh 30.03 in1016.9 mb 0.00 in0.0 mm 0.00 in/hr0.0 mm/hr 0.00 in0.0 mm
05:33 AM 59.7°F15.4°C 46.2°F7.9°C 61% 8.7 mph NW14.0 kmh NW 14.2 mph22.9 kmh 30.03 in1016.9 mb 0.00 in0.0 mm 0.00 in/hr0.0 mm/hr 0.00 in0.0 mm
05:23 AM 59.9°F15.5°C 46.0°F7.8°C 60% 8.0 mph WNW12.9 kmh WNW 16.6 mph26.7 kmh 30.03 in1016.9 mb 0.00 in0.0 mm 0.00 in/hr0.0 mm/hr 0.00 in0.0 mm
05:13 AM 60.2°F15.7°C 45.3°F7.4°C 58% 8.4 mph WNW13.5 kmh WNW 16.6 mph26.7 kmh 30.00 in1015.9 mb 0.00 in0.0 mm 0.00 in/hr0.0 mm/hr 0.00 in0.0 mm
05:03 AM 60.6°F15.9°C 46.2°F7.9°C 59% 9.4 mph NW15.1 kmh NW 19.5 mph31.4 kmh 30.03 in1016.9 mb 0.00 in0.0 mm 0.00 in/hr0.0 mm/hr 0.00 in0.0 mm
04:53 AM 60.3°F15.7°C 46.3°F7.9°C 60% 10.7 mph NW17.2 kmh NW 17.1 mph27.5 kmh 30.03 in1016.9 mb 0.00 in0.0 mm 0.00 in/hr0.0 mm/hr 0.00 in0.0 mm
04:43 AM 59.9°F15.5°C 46.4°F8.0°C 61% 9.0 mph NW14.5 kmh NW 17.1 mph27.5 kmh 30.00 in1015.9 mb 0.00 in0.0 mm 0.00 in/hr0.0 mm/hr 0.00 in0.0 mm
04:33 AM 59.9°F15.5°C 46.8°F8.2°C 62% 7.6 mph NW12.2 kmh NW 14.2 mph22.9 kmh 30.00 in1015.9 mb 0.00 in0.0 mm 0.00 in/hr0.0 mm/hr 0.00 in0.0 mm
04:23 AM 60.1°F15.6°C 46.6°F8.1°C 61% 10.6 mph NW17.1 kmh NW 17.7 mph28.5 kmh 30.00 in1015.9 mb 0.00 in0.0 mm 0.00 in/hr0.0 mm/hr 0.00 in0.0 mm
04:13 AM 60.6°F15.9°C 46.2°F7.9°C 59% 9.5 mph NW15.3 kmh NW 13.1 mph21.1 kmh 30.00 in1015.9 mb 0.00 in0.0 mm 0.00 in/hr0.0 mm/hr 0.00 in0.0 mm
04:03 AM 61.7°F16.5°C 44.8°F7.1°C 54% 8.6 mph WNW13.8 kmh WNW 19.5 mph31.4 kmh 30.00 in1015.9 mb 0.00 in0.0 mm 0.00 in/hr0.0 mm/hr 0.00 in0.0 mm
03:53 AM 61.7°F16.5°C 44.9°F7.2°C 54% 7.6 mph WNW12.2 kmh WNW 13.7 mph22.0 kmh 30.00 in1015.9 mb 0.00 in0.0 mm 0.00 in/hr0.0 mm/hr 0.00 in0.0 mm
03:43 AM 61.5°F16.4°C 44.2°F6.8°C 53% 9.1 mph W14.6 kmh W 13.7 mph22.0 kmh 30.00 in1015.9 mb 0.00 in0.0 mm 0.00 in/hr0.0 mm/hr 0.00 in0.0 mm
03:33 AM 61.6°F16.4°C 43.8°F6.6°C 52% 8.2 mph WNW13.2 kmh WNW 11.3 mph18.2 kmh 30.00 in1015.9 mb 0.00 in0.0 mm 0.00 in/hr0.0 mm/hr 0.00 in0.0 mm
03:24 AM 62.2°F16.8°C 43.4°F6.3°C 50% 9.1 mph WNW14.6 kmh WNW 16.0 mph25.7 kmh 30.00 in1015.9 mb 0.00 in0.0 mm 0.00 in/hr0.0 mm/hr 0.00 in0.0 mm
03:13 AM 62.8°F17.1°C 43.9°F6.6°C 50% 7.8 mph NW12.6 kmh NW 11.3 mph18.2 kmh 30.03 in1016.9 mb 0.00 in0.0 mm 0.00 in/hr0.0 mm/hr 0.00 in0.0 mm
03:03 AM 62.6°F17.0°C 44.2°F6.8°C 51% 8.8 mph NW14.2 kmh NW 13.7 mph22.0 kmh 30.03 in1016.9 mb 0.00 in0.0 mm 0.00 in/hr0.0 mm/hr 0.00 in0.0 mm
02:53 AM 62.4°F16.9°C 44.6°F7.0°C 52% 6.2 mph WNW10.0 kmh WNW 13.1 mph21.1 kmh 30.03 in1016.9 mb 0.00 in0.0 mm 0.00 in/hr0.0 mm/hr 0.00 in0.0 mm
02:43 AM 62.6°F17.0°C 44.7°F7.1°C 52% 7.3 mph NW11.7 kmh NW 13.7 mph22.0 kmh 30.03 in1016.9 mb 0.00 in0.0 mm 0.00 in/hr0.0 mm/hr 0.00 in0.0 mm
02:33 AM 62.8°F17.1°C 44.9°F7.2°C 52% 8.5 mph NW13.7 kmh NW 11.3 mph18.2 kmh 30.03 in1016.9 mb 0.00 in0.0 mm 0.00 in/hr0.0 mm/hr 0.00 in0.0 mm
02:23 AM 63.3°F17.4°C 47.3°F8.5°C 56% 7.4 mph NW11.9 kmh NW 11.3 mph18.2 kmh 30.03 in1016.9 mb 0.00 in0.0 mm 0.00 in/hr0.0 mm/hr 0.00 in0.0 mm
02:13 AM 63.1°F17.3°C 47.2°F8.4°C 56% 6.0 mph NW9.7 kmh NW 13.7 mph22.0 kmh 30.03 in1016.9 mb 0.00 in0.0 mm 0.00 in/hr0.0 mm/hr 0.00 in0.0 mm
02:03 AM 63.3°F17.4°C 47.8°F8.8°C 57% 7.8 mph NW12.6 kmh NW 11.3 mph18.2 kmh 30.03 in1016.9 mb 0.00 in0.0 mm 0.00 in/hr0.0 mm/hr 0.00 in0.0 mm
01:53 AM 62.8°F17.1°C 48.3°F9.1°C 59% 6.5 mph NW10.5 kmh NW 11.3 mph18.2 kmh 30.03 in1016.9 mb 0.00 in0.0 mm 0.00 in/hr0.0 mm/hr 0.00 in0.0 mm
01:43 AM 62.2°F16.8°C 49.0°F9.4°C 62% 7.2 mph NW11.6 kmh NW 11.9 mph19.2 kmh 30.03 in1016.9 mb 0.00 in0.0 mm 0.00 in/hr0.0 mm/hr 0.00 in0.0 mm
01:33 AM 62.1°F16.7°C 49.7°F9.8°C 64% 6.2 mph NW10.0 kmh NW 11.3 mph18.2 kmh 30.03 in1016.9 mb 0.00 in0.0 mm 0.00 in/hr0.0 mm/hr 0.00 in0.0 mm
01:23 AM 62.1°F16.7°C 50.6°F10.3°C 66% 7.8 mph NW12.6 kmh NW 13.1 mph21.1 kmh 30.03 in1016.9 mb 0.00 in0.0 mm 0.00 in/hr0.0 mm/hr 0.00 in0.0 mm
01:13 AM 61.9°F16.6°C 50.4°F10.2°C 66% 5.8 mph NW9.3 kmh NW 10.7 mph17.2 kmh 30.03 in1016.9 mb 0.00 in0.0 mm 0.00 in/hr0.0 mm/hr 0.00 in0.0 mm
01:03 AM 61.5°F16.4°C 49.6°F9.8°C 65% 7.0 mph NW11.3 kmh NW 10.5 mph16.9 kmh 30.03 in1016.9 mb 0.00 in0.0 mm 0.00 in/hr0.0 mm/hr 0.00 in0.0 mm
12:53 AM 61.5°F16.4°C 49.2°F9.6°C 64% 4.8 mph NW7.7 kmh NW 9.9 mph15.9 kmh 30.03 in1016.9 mb 0.00 in0.0 mm 0.00 in/hr0.0 mm/hr 0.00 in0.0 mm
12:43 AM 61.7°F16.5°C 49.4°F9.7°C 64% 6.7 mph NW10.8 kmh NW 10.7 mph17.2 kmh 30.03 in1016.9 mb 0.00 in0.0 mm 0.00 in/hr0.0 mm/hr 0.00 in0.0 mm
12:33 AM 61.5°F16.4°C 49.6°F9.8°C 65% 5.8 mph NW9.3 kmh NW 10.7 mph17.2 kmh 30.03 in1016.9 mb 0.00 in0.0 mm 0.00 in/hr0.0 mm/hr 0.00 in0.0 mm
12:23 AM 61.7°F16.5°C 49.4°F9.7°C 64% 4.4 mph NW7.1 kmh NW 10.5 mph16.9 kmh 30.03 in1016.9 mb 0.00 in0.0 mm 0.00 in/hr0.0 mm/hr 0.00 in0.0 mm
12:13 AM 61.4°F16.3°C 49.5°F9.7°C 65% 4.6 mph NW7.4 kmh NW 9.3 mph15.0 kmh 30.03 in1016.9 mb 0.00 in0.0 mm 0.00 in/hr0.0 mm/hr 0.00 in0.0 mm
12:03 AM 61.5°F16.4°C 49.2°F9.6°C 64% 4.5 mph NW7.2 kmh NW 9.3 mph15.0 kmh 30.03 in1016.9 mb 0.00 in0.0 mm 0.00 in/hr0.0 mm/hr 0.00 in0.0 mm